sensor_id;sensor_type;location;lat;lon;timestamp;P1;durP1;ratioP1;P2;durP2;ratioP2
18455;SDS011;9357;49.900;8.208;2022-12-18T00:01:00;89.03;;;23.70;;
18455;SDS011;9357;49.900;8.208;2022-12-18T00:02:36;69.15;;;23.08;;
18455;SDS011;9357;49.900;8.208;2022-12-18T00:04:14;73.93;;;24.55;;
18455;SDS011;9357;49.900;8.208;2022-12-18T00:05:50;65.03;;;23.30;;
18455;SDS011;9357;49.900;8.208;2022-12-18T00:07:24;72.03;;;23.77;;
18455;SDS011;9357;49.900;8.208;2022-12-18T00:08:57;92.78;;;24.65;;
18455;SDS011;9357;49.900;8.208;2022-12-18T00:10:31;73.40;;;24.63;;
18455;SDS011;9357;49.900;8.208;2022-12-18T00:12:04;112.20;;;25.05;;
18455;SDS011;9357;49.900;8.208;2022-12-18T00:13:47;157.73;;;27.90;;
18455;SDS011;9357;49.900;8.208;2022-12-18T00:15:20;115.32;;;24.92;;
18455;SDS011;9357;49.900;8.208;2022-12-18T00:16:53;96.70;;;25.08;;
18455;SDS011;9357;49.900;8.208;2022-12-18T00:18:25;85.40;;;23.30;;
18455;SDS011;9357;49.900;8.208;2022-12-18T00:19:58;85.40;;;23.50;;
18455;SDS011;9357;49.900;8.208;2022-12-18T00:21:31;83.93;;;24.35;;
18455;SDS011;9357;49.900;8.208;2022-12-18T00:23:05;146.02;;;28.98;;
18455;SDS011;9357;49.900;8.208;2022-12-18T00:24:40;122.38;;;25.77;;
18455;SDS011;9357;49.900;8.208;2022-12-18T00:26:13;92.57;;;24.63;;
18455;SDS011;9357;49.900;8.208;2022-12-18T00:27:46;107.47;;;25.95;;
18455;SDS011;9357;49.900;8.208;2022-12-18T00:29:20;80.07;;;24.23;;
18455;SDS011;9357;49.900;8.208;2022-12-18T00:30:59;89.63;;;25.77;;
18455;SDS011;9357;49.900;8.208;2022-12-18T00:32:32;97.68;;;25.42;;
18455;SDS011;9357;49.900;8.208;2022-12-18T00:34:05;71.30;;;24.05;;
18455;SDS011;9357;49.900;8.208;2022-12-18T00:35:37;103.95;;;26.10;;
18455;SDS011;9357;49.900;8.208;2022-12-18T00:37:10;106.10;;;25.80;;
18455;SDS011;9357;49.900;8.208;2022-12-18T00:38:50;92.65;;;23.83;;
18455;SDS011;9357;49.900;8.208;2022-12-18T00:40:23;134.40;;;26.38;;
18455;SDS011;9357;49.900;8.208;2022-12-18T00:41:56;105.35;;;27.38;;
18455;SDS011;9357;49.900;8.208;2022-12-18T00:43:46;77.32;;;23.65;;
18455;SDS011;9357;49.900;8.208;2022-12-18T00:45:19;75.38;;;23.85;;
18455;SDS011;9357;49.900;8.208;2022-12-18T00:46:52;92.65;;;27.60;;
18455;SDS011;9357;49.900;8.208;2022-12-18T00:48:24;73.18;;;24.75;;
18455;SDS011;9357;49.900;8.208;2022-12-18T00:49:57;76.63;;;25.27;;
18455;SDS011;9357;49.900;8.208;2022-12-18T00:51:30;100.57;;;27.08;;
18455;SDS011;9357;49.900;8.208;2022-12-18T00:53:02;84.22;;;25.63;;
18455;SDS011;9357;49.900;8.208;2022-12-18T00:54:34;79.00;;;26.25;;
18455;SDS011;9357;49.900;8.208;2022-12-18T00:56:07;89.70;;;25.88;;
18455;SDS011;9357;49.900;8.208;2022-12-18T00:57:39;76.15;;;24.63;;
18455;SDS011;9357;49.900;8.208;2022-12-18T00:59:12;72.50;;;24.75;;
18455;SDS011;9357;49.900;8.208;2022-12-18T01:00:46;77.70;;;25.33;;
18455;SDS011;9357;49.900;8.208;2022-12-18T01:02:18;86.35;;;26.60;;
18455;SDS011;9357;49.900;8.208;2022-12-18T01:03:51;78.25;;;26.45;;
18455;SDS011;9357;49.900;8.208;2022-12-18T01:05:24;94.13;;;26.70;;
18455;SDS011;9357;49.900;8.208;2022-12-18T01:06:57;80.63;;;27.42;;
18455;SDS011;9357;49.900;8.208;2022-12-18T01:08:30;77.82;;;26.95;;
18455;SDS011;9357;49.900;8.208;2022-12-18T01:10:02;77.80;;;26.92;;
18455;SDS011;9357;49.900;8.208;2022-12-18T01:11:35;94.05;;;26.77;;
18455;SDS011;9357;49.900;8.208;2022-12-18T01:13:08;85.45;;;27.33;;
18455;SDS011;9357;49.900;8.208;2022-12-18T01:14:40;73.82;;;26.45;;
18455;SDS011;9357;49.900;8.208;2022-12-18T01:16:15;77.70;;;26.98;;
18455;SDS011;9357;49.900;8.208;2022-12-18T01:17:49;74.15;;;27.00;;
18455;SDS011;9357;49.900;8.208;2022-12-18T01:19:24;76.15;;;26.63;;
18455;SDS011;9357;49.900;8.208;2022-12-18T01:20:56;74.20;;;27.20;;
18455;SDS011;9357;49.900;8.208;2022-12-18T01:22:28;81.22;;;26.45;;
18455;SDS011;9357;49.900;8.208;2022-12-18T01:24:01;72.03;;;25.58;;
18455;SDS011;9357;49.900;8.208;2022-12-18T01:25:35;70.55;;;26.10;;
18455;SDS011;9357;49.900;8.208;2022-12-18T01:27:08;63.78;;;24.60;;
18455;SDS011;9357;49.900;8.208;2022-12-18T01:28:41;66.40;;;24.48;;
18455;SDS011;9357;49.900;8.208;2022-12-18T01:30:15;66.60;;;25.65;;
18455;SDS011;9357;49.900;8.208;2022-12-18T01:31:49;64.80;;;24.67;;
18455;SDS011;9357;49.900;8.208;2022-12-18T01:33:21;66.60;;;24.17;;
18455;SDS011;9357;49.900;8.208;2022-12-18T01:34:55;68.05;;;23.92;;
18455;SDS011;9357;49.900;8.208;2022-12-18T01:36:29;67.75;;;24.10;;
18455;SDS011;9357;49.900;8.208;2022-12-18T01:38:03;62.67;;;23.25;;
18455;SDS011;9357;49.900;8.208;2022-12-18T01:39:36;66.45;;;23.77;;
18455;SDS011;9357;49.900;8.208;2022-12-18T01:41:09;70.72;;;23.58;;
18455;SDS011;9357;49.900;8.208;2022-12-18T01:42:42;65.53;;;24.08;;
18455;SDS011;9357;49.900;8.208;2022-12-18T01:46:25;59.47;;;22.23;;
18455;SDS011;9357;49.900;8.208;2022-12-18T01:48:00;69.72;;;22.52;;
18455;SDS011;9357;49.900;8.208;2022-12-18T01:49:35;64.00;;;21.75;;
18455;SDS011;9357;49.900;8.208;2022-12-18T01:51:08;58.22;;;22.17;;
18455;SDS011;9357;49.900;8.208;2022-12-18T01:52:42;56.13;;;22.15;;
18455;SDS011;9357;49.900;8.208;2022-12-18T01:54:18;61.22;;;22.08;;
18455;SDS011;9357;49.900;8.208;2022-12-18T01:55:51;58.10;;;22.67;;
18455;SDS011;9357;49.900;8.208;2022-12-18T01:57:26;53.58;;;22.23;;
18455;SDS011;9357;49.900;8.208;2022-12-18T01:59:00;62.53;;;23.40;;
18455;SDS011;9357;49.900;8.208;2022-12-18T02:00:35;59.15;;;22.70;;
18455;SDS011;9357;49.900;8.208;2022-12-18T02:02:08;61.17;;;22.50;;
18455;SDS011;9357;49.900;8.208;2022-12-18T02:03:42;60.47;;;22.63;;
18455;SDS011;9357;49.900;8.208;2022-12-18T02:05:17;59.13;;;22.17;;
18455;SDS011;9357;49.900;8.208;2022-12-18T02:06:57;54.70;;;22.48;;
18455;SDS011;9357;49.900;8.208;2022-12-18T02:08:37;59.05;;;22.10;;
18455;SDS011;9357;49.900;8.208;2022-12-18T02:10:15;64.97;;;21.45;;
18455;SDS011;9357;49.900;8.208;2022-12-18T02:11:52;60.72;;;22.15;;
18455;SDS011;9357;49.900;8.208;2022-12-18T02:13:32;61.15;;;22.63;;
18455;SDS011;9357;49.900;8.208;2022-12-18T02:15:14;62.60;;;22.88;;
18455;SDS011;9357;49.900;8.208;2022-12-18T02:16:52;59.03;;;22.23;;
18455;SDS011;9357;49.900;8.208;2022-12-18T02:18:30;57.22;;;22.58;;
18455;SDS011;9357;49.900;8.208;2022-12-18T02:20:12;56.15;;;22.02;;
18455;SDS011;9357;49.900;8.208;2022-12-18T02:21:54;59.45;;;22.00;;
18455;SDS011;9357;49.900;8.208;2022-12-18T02:23:45;58.80;;;23.80;;
18455;SDS011;9357;49.900;8.208;2022-12-18T02:25:30;65.72;;;23.88;;
18455;SDS011;9357;49.900;8.208;2022-12-18T02:27:12;58.90;;;22.48;;
18455;SDS011;9357;49.900;8.208;2022-12-18T02:28:46;52.53;;;21.35;;
18455;SDS011;9357;49.900;8.208;2022-12-18T02:30:23;59.88;;;21.67;;
18455;SDS011;9357;49.900;8.208;2022-12-18T02:31:56;58.22;;;21.55;;
18455;SDS011;9357;49.900;8.208;2022-12-18T02:33:31;56.50;;;21.05;;
18455;SDS011;9357;49.900;8.208;2022-12-18T02:35:07;60.45;;;23.23;;
18455;SDS011;9357;49.900;8.208;2022-12-18T02:36:45;64.90;;;23.40;;
18455;SDS011;9357;49.900;8.208;2022-12-18T02:38:18;62.53;;;21.55;;
18455;SDS011;9357;49.900;8.208;2022-12-18T02:39:52;62.95;;;22.27;;
18455;SDS011;9357;49.900;8.208;2022-12-18T02:41:26;62.03;;;23.02;;
18455;SDS011;9357;49.900;8.208;2022-12-18T02:43:08;65.30;;;22.92;;
18455;SDS011;9357;49.900;8.208;2022-12-18T02:44:42;62.25;;;22.20;;
18455;SDS011;9357;49.900;8.208;2022-12-18T02:46:31;60.05;;;22.35;;
18455;SDS011;9357;49.900;8.208;2022-12-18T02:48:07;58.75;;;21.80;;
18455;SDS011;9357;49.900;8.208;2022-12-18T02:49:40;59.45;;;21.02;;
18455;SDS011;9357;49.900;8.208;2022-12-18T02:51:23;61.58;;;22.00;;
18455;SDS011;9357;49.900;8.208;2022-12-18T02:53:06;60.05;;;22.48;;
18455;SDS011;9357;49.900;8.208;2022-12-18T02:54:51;57.40;;;22.95;;
18455;SDS011;9357;49.900;8.208;2022-12-18T02:56:32;51.92;;;20.88;;
18455;SDS011;9357;49.900;8.208;2022-12-18T02:58:12;53.70;;;20.73;;
18455;SDS011;9357;49.900;8.208;2022-12-18T02:59:51;54.83;;;20.92;;
18455;SDS011;9357;49.900;8.208;2022-12-18T03:01:31;55.42;;;21.38;;
18455;SDS011;9357;49.900;8.208;2022-12-18T03:03:09;55.08;;;21.70;;
18455;SDS011;9357;49.900;8.208;2022-12-18T03:04:49;56.83;;;21.60;;
18455;SDS011;9357;49.900;8.208;2022-12-18T03:06:25;54.38;;;21.83;;
18455;SDS011;9357;49.900;8.208;2022-12-18T03:08:02;54.72;;;21.10;;
18455;SDS011;9357;49.900;8.208;2022-12-18T03:09:39;46.67;;;20.35;;
18455;SDS011;9357;49.900;8.208;2022-12-18T03:11:14;51.88;;;20.88;;
18455;SDS011;9357;49.900;8.208;2022-12-18T03:13:08;48.08;;;20.05;;
18455;SDS011;9357;49.900;8.208;2022-12-18T03:14:44;46.33;;;19.50;;
18455;SDS011;9357;49.900;8.208;2022-12-18T03:16:22;52.42;;;20.20;;
18455;SDS011;9357;49.900;8.208;2022-12-18T03:17:58;51.95;;;18.83;;
18455;SDS011;9357;49.900;8.208;2022-12-18T03:19:34;49.03;;;19.38;;
18455;SDS011;9357;49.900;8.208;2022-12-18T03:21:10;46.72;;;20.23;;
18455;SDS011;9357;49.900;8.208;2022-12-18T03:22:46;45.33;;;19.35;;
18455;SDS011;9357;49.900;8.208;2022-12-18T03:24:22;49.05;;;19.55;;
18455;SDS011;9357;49.900;8.208;2022-12-18T03:25:57;46.03;;;19.42;;
18455;SDS011;9357;49.900;8.208;2022-12-18T03:27:40;48.97;;;19.23;;
18455;SDS011;9357;49.900;8.208;2022-12-18T03:29:18;47.20;;;19.33;;
18455;SDS011;9357;49.900;8.208;2022-12-18T03:30:55;45.17;;;18.67;;
18455;SDS011;9357;49.900;8.208;2022-12-18T03:32:31;41.83;;;18.92;;
18455;SDS011;9357;49.900;8.208;2022-12-18T03:34:09;49.42;;;19.40;;
18455;SDS011;9357;49.900;8.208;2022-12-18T03:35:47;43.05;;;19.02;;
18455;SDS011;9357;49.900;8.208;2022-12-18T03:37:19;44.17;;;19.25;;
18455;SDS011;9357;49.900;8.208;2022-12-18T03:38:51;44.33;;;19.00;;
18455;SDS011;9357;49.900;8.208;2022-12-18T03:40:26;43.05;;;19.60;;
18455;SDS011;9357;49.900;8.208;2022-12-18T03:42:04;42.03;;;18.38;;
18455;SDS011;9357;49.900;8.208;2022-12-18T03:43:42;42.53;;;17.77;;
18455;SDS011;9357;49.900;8.208;2022-12-18T03:45:22;42.28;;;18.02;;
18455;SDS011;9357;49.900;8.208;2022-12-18T03:47:01;41.72;;;18.70;;
18455;SDS011;9357;49.900;8.208;2022-12-18T03:48:41;44.85;;;18.30;;
18455;SDS011;9357;49.900;8.208;2022-12-18T03:50:22;43.42;;;18.63;;
18455;SDS011;9357;49.900;8.208;2022-12-18T03:52:03;41.85;;;19.52;;
18455;SDS011;9357;49.900;8.208;2022-12-18T03:53:40;41.78;;;18.65;;
18455;SDS011;9357;49.900;8.208;2022-12-18T03:55:20;45.95;;;19.77;;
18455;SDS011;9357;49.900;8.208;2022-12-18T03:56:54;42.30;;;18.50;;
18455;SDS011;9357;49.900;8.208;2022-12-18T03:58:31;44.45;;;18.73;;
18455;SDS011;9357;49.900;8.208;2022-12-18T04:00:06;44.97;;;19.00;;
18455;SDS011;9357;49.900;8.208;2022-12-18T04:01:42;44.33;;;19.35;;
18455;SDS011;9357;49.900;8.208;2022-12-18T04:03:19;40.10;;;18.73;;
18455;SDS011;9357;49.900;8.208;2022-12-18T04:04:57;45.55;;;19.35;;
18455;SDS011;9357;49.900;8.208;2022-12-18T04:06:32;46.30;;;19.60;;
18455;SDS011;9357;49.900;8.208;2022-12-18T04:08:06;44.50;;;18.92;;
18455;SDS011;9357;49.900;8.208;2022-12-18T04:09:39;40.85;;;18.58;;
18455;SDS011;9357;49.900;8.208;2022-12-18T04:11:14;46.10;;;18.85;;
18455;SDS011;9357;49.900;8.208;2022-12-18T04:12:46;39.83;;;18.65;;
18455;SDS011;9357;49.900;8.208;2022-12-18T04:14:19;46.97;;;19.48;;
18455;SDS011;9357;49.900;8.208;2022-12-18T04:15:52;45.20;;;19.20;;
18455;SDS011;9357;49.900;8.208;2022-12-18T04:17:25;45.20;;;19.48;;
18455;SDS011;9357;49.900;8.208;2022-12-18T04:18:59;43.05;;;19.58;;
18455;SDS011;9357;49.900;8.208;2022-12-18T04:20:32;40.05;;;18.52;;
18455;SDS011;9357;49.900;8.208;2022-12-18T04:22:04;47.13;;;19.77;;
18455;SDS011;9357;49.900;8.208;2022-12-18T04:23:36;41.58;;;19.50;;
18455;SDS011;9357;49.900;8.208;2022-12-18T04:25:09;41.75;;;18.60;;
18455;SDS011;9357;49.900;8.208;2022-12-18T04:26:41;40.72;;;18.80;;
18455;SDS011;9357;49.900;8.208;2022-12-18T04:28:14;39.67;;;18.63;;
18455;SDS011;9357;49.900;8.208;2022-12-18T04:29:47;42.03;;;18.10;;
18455;SDS011;9357;49.900;8.208;2022-12-18T04:31:20;47.55;;;19.55;;
18455;SDS011;9357;49.900;8.208;2022-12-18T04:32:53;40.70;;;18.75;;
18455;SDS011;9357;49.900;8.208;2022-12-18T04:34:27;43.10;;;19.45;;
18455;SDS011;9357;49.900;8.208;2022-12-18T04:36:01;46.20;;;19.88;;
18455;SDS011;9357;49.900;8.208;2022-12-18T04:37:34;43.17;;;19.42;;
18455;SDS011;9357;49.900;8.208;2022-12-18T04:39:05;46.88;;;20.67;;
18455;SDS011;9357;49.900;8.208;2022-12-18T04:40:38;49.92;;;20.40;;
18455;SDS011;9357;49.900;8.208;2022-12-18T04:42:12;45.88;;;20.17;;
18455;SDS011;9357;49.900;8.208;2022-12-18T04:43:44;49.58;;;20.30;;
18455;SDS011;9357;49.900;8.208;2022-12-18T04:45:17;44.38;;;20.10;;
18455;SDS011;9357;49.900;8.208;2022-12-18T04:46:50;50.17;;;20.63;;
18455;SDS011;9357;49.900;8.208;2022-12-18T04:48:22;45.65;;;19.40;;
18455;SDS011;9357;49.900;8.208;2022-12-18T04:49:56;42.67;;;20.70;;
18455;SDS011;9357;49.900;8.208;2022-12-18T04:51:29;46.17;;;21.15;;
18455;SDS011;9357;49.900;8.208;2022-12-18T04:53:02;45.90;;;20.80;;
18455;SDS011;9357;49.900;8.208;2022-12-18T04:54:35;46.13;;;20.15;;
18455;SDS011;9357;49.900;8.208;2022-12-18T04:56:07;48.00;;;20.55;;
18455;SDS011;9357;49.900;8.208;2022-12-18T04:57:42;47.03;;;19.42;;
18455;SDS011;9357;49.900;8.208;2022-12-18T04:59:14;47.10;;;19.17;;
18455;SDS011;9357;49.900;8.208;2022-12-18T05:00:47;45.78;;;19.75;;
18455;SDS011;9357;49.900;8.208;2022-12-18T05:02:20;43.22;;;20.48;;
18455;SDS011;9357;49.900;8.208;2022-12-18T05:03:53;44.08;;;18.55;;
18455;SDS011;9357;49.900;8.208;2022-12-18T05:05:27;47.67;;;19.77;;
18455;SDS011;9357;49.900;8.208;2022-12-18T05:07:00;42.08;;;19.27;;
18455;SDS011;9357;49.900;8.208;2022-12-18T05:08:33;43.60;;;19.50;;
18455;SDS011;9357;49.900;8.208;2022-12-18T05:10:06;47.40;;;18.60;;
18455;SDS011;9357;49.900;8.208;2022-12-18T05:11:40;43.63;;;19.95;;
18455;SDS011;9357;49.900;8.208;2022-12-18T05:13:12;44.28;;;19.50;;
18455;SDS011;9357;49.900;8.208;2022-12-18T05:14:45;42.22;;;19.65;;
18455;SDS011;9357;49.900;8.208;2022-12-18T05:16:16;46.00;;;19.88;;
18455;SDS011;9357;49.900;8.208;2022-12-18T05:17:49;41.88;;;19.10;;
18455;SDS011;9357;49.900;8.208;2022-12-18T05:19:21;41.78;;;18.52;;
18455;SDS011;9357;49.900;8.208;2022-12-18T05:20:55;39.92;;;18.95;;
18455;SDS011;9357;49.900;8.208;2022-12-18T05:22:28;44.58;;;19.42;;
18455;SDS011;9357;49.900;8.208;2022-12-18T05:24:00;36.90;;;18.02;;
18455;SDS011;9357;49.900;8.208;2022-12-18T05:25:33;44.30;;;19.40;;
18455;SDS011;9357;49.900;8.208;2022-12-18T05:27:06;43.72;;;19.80;;
18455;SDS011;9357;49.900;8.208;2022-12-18T05:28:38;40.15;;;18.30;;
18455;SDS011;9357;49.900;8.208;2022-12-18T05:30:11;47.55;;;19.25;;
18455;SDS011;9357;49.900;8.208;2022-12-18T05:31:44;46.20;;;19.25;;
18455;SDS011;9357;49.900;8.208;2022-12-18T05:33:16;43.97;;;19.25;;
18455;SDS011;9357;49.900;8.208;2022-12-18T05:34:50;44.55;;;19.50;;
18455;SDS011;9357;49.900;8.208;2022-12-18T05:36:24;45.38;;;20.17;;
18455;SDS011;9357;49.900;8.208;2022-12-18T05:37:56;46.55;;;20.48;;
18455;SDS011;9357;49.900;8.208;2022-12-18T05:39:29;48.78;;;21.48;;
18455;SDS011;9357;49.900;8.208;2022-12-18T05:41:01;47.10;;;20.38;;
18455;SDS011;9357;49.900;8.208;2022-12-18T05:42:34;49.75;;;20.42;;
18455;SDS011;9357;49.900;8.208;2022-12-18T05:44:07;50.72;;;21.60;;
18455;SDS011;9357;49.900;8.208;2022-12-18T05:45:40;43.30;;;21.45;;
18455;SDS011;9357;49.900;8.208;2022-12-18T05:47:12;46.70;;;21.58;;
18455;SDS011;9357;49.900;8.208;2022-12-18T05:48:45;48.33;;;21.52;;
18455;SDS011;9357;49.900;8.208;2022-12-18T05:50:19;50.17;;;20.90;;
18455;SDS011;9357;49.900;8.208;2022-12-18T05:51:52;48.05;;;21.80;;
18455;SDS011;9357;49.900;8.208;2022-12-18T05:53:25;46.38;;;20.30;;
18455;SDS011;9357;49.900;8.208;2022-12-18T05:54:57;49.88;;;22.38;;
18455;SDS011;9357;49.900;8.208;2022-12-18T05:56:31;48.53;;;20.67;;
18455;SDS011;9357;49.900;8.208;2022-12-18T05:58:03;46.33;;;21.58;;
18455;SDS011;9357;49.900;8.208;2022-12-18T05:59:37;50.22;;;21.92;;
18455;SDS011;9357;49.900;8.208;2022-12-18T06:01:11;48.60;;;21.40;;
18455;SDS011;9357;49.900;8.208;2022-12-18T06:02:46;51.58;;;22.85;;
18455;SDS011;9357;49.900;8.208;2022-12-18T06:04:19;49.47;;;21.67;;
18455;SDS011;9357;49.900;8.208;2022-12-18T06:05:51;53.22;;;22.98;;
18455;SDS011;9357;49.900;8.208;2022-12-18T06:07:25;49.58;;;21.98;;
18455;SDS011;9357;49.900;8.208;2022-12-18T06:08:57;52.08;;;22.73;;
18455;SDS011;9357;49.900;8.208;2022-12-18T06:10:32;48.92;;;22.65;;
18455;SDS011;9357;49.900;8.208;2022-12-18T06:12:04;51.20;;;22.00;;
18455;SDS011;9357;49.900;8.208;2022-12-18T06:13:38;49.70;;;22.23;;
18455;SDS011;9357;49.900;8.208;2022-12-18T06:15:11;47.53;;;21.65;;
18455;SDS011;9357;49.900;8.208;2022-12-18T06:16:44;47.53;;;21.77;;
18455;SDS011;9357;49.900;8.208;2022-12-18T06:18:17;43.63;;;20.60;;
18455;SDS011;9357;49.900;8.208;2022-12-18T06:19:49;46.10;;;20.58;;
18455;SDS011;9357;49.900;8.208;2022-12-18T06:21:22;49.03;;;21.25;;
18455;SDS011;9357;49.900;8.208;2022-12-18T06:22:56;46.50;;;20.33;;
18455;SDS011;9357;49.900;8.208;2022-12-18T06:24:29;46.45;;;20.35;;
18455;SDS011;9357;49.900;8.208;2022-12-18T06:26:05;52.22;;;22.08;;
18455;SDS011;9357;49.900;8.208;2022-12-18T06:27:38;44.10;;;20.25;;
18455;SDS011;9357;49.900;8.208;2022-12-18T06:29:12;45.28;;;21.15;;
18455;SDS011;9357;49.900;8.208;2022-12-18T06:30:45;51.15;;;21.98;;
18455;SDS011;9357;49.900;8.208;2022-12-18T06:32:19;50.78;;;21.00;;
18455;SDS011;9357;49.900;8.208;2022-12-18T06:33:51;48.10;;;20.73;;
18455;SDS011;9357;49.900;8.208;2022-12-18T06:35:24;46.75;;;19.85;;
18455;SDS011;9357;49.900;8.208;2022-12-18T06:36:57;45.65;;;21.00;;
18455;SDS011;9357;49.900;8.208;2022-12-18T06:38:32;48.67;;;20.35;;
18455;SDS011;9357;49.900;8.208;2022-12-18T06:40:06;46.80;;;20.10;;
18455;SDS011;9357;49.900;8.208;2022-12-18T06:41:40;47.90;;;21.52;;
18455;SDS011;9357;49.900;8.208;2022-12-18T06:43:12;47.70;;;21.70;;
18455;SDS011;9357;49.900;8.208;2022-12-18T06:44:45;51.70;;;21.88;;
18455;SDS011;9357;49.900;8.208;2022-12-18T06:46:18;51.25;;;21.10;;
18455;SDS011;9357;49.900;8.208;2022-12-18T06:47:51;47.90;;;21.30;;
18455;SDS011;9357;49.900;8.208;2022-12-18T06:49:23;46.10;;;19.92;;
18455;SDS011;9357;49.900;8.208;2022-12-18T06:51:01;52.08;;;21.80;;
18455;SDS011;9357;49.900;8.208;2022-12-18T06:52:34;48.63;;;20.23;;
18455;SDS011;9357;49.900;8.208;2022-12-18T06:54:09;47.20;;;19.70;;
18455;SDS011;9357;49.900;8.208;2022-12-18T06:55:42;47.92;;;21.13;;
18455;SDS011;9357;49.900;8.208;2022-12-18T06:57:15;49.38;;;21.70;;
18455;SDS011;9357;49.900;8.208;2022-12-18T06:58:47;45.78;;;20.98;;
18455;SDS011;9357;49.900;8.208;2022-12-18T07:00:19;50.70;;;21.58;;
18455;SDS011;9357;49.900;8.208;2022-12-18T07:01:52;43.70;;;21.27;;
18455;SDS011;9357;49.900;8.208;2022-12-18T07:03:25;46.83;;;20.48;;
18455;SDS011;9357;49.900;8.208;2022-12-18T07:04:58;47.63;;;20.52;;
18455;SDS011;9357;49.900;8.208;2022-12-18T07:06:37;47.15;;;20.38;;
18455;SDS011;9357;49.900;8.208;2022-12-18T07:08:10;47.05;;;20.55;;
18455;SDS011;9357;49.900;8.208;2022-12-18T07:09:44;44.80;;;19.88;;
18455;SDS011;9357;49.900;8.208;2022-12-18T07:11:17;54.15;;;21.83;;
18455;SDS011;9357;49.900;8.208;2022-12-18T07:12:50;46.60;;;19.63;;
18455;SDS011;9357;49.900;8.208;2022-12-18T07:14:23;49.85;;;21.67;;
18455;SDS011;9357;49.900;8.208;2022-12-18T07:16:02;40.80;;;19.27;;
18455;SDS011;9357;49.900;8.208;2022-12-18T07:17:45;61.17;;;24.15;;
18455;SDS011;9357;49.900;8.208;2022-12-18T07:19:18;78.25;;;29.65;;
18455;SDS011;9357;49.900;8.208;2022-12-18T07:20:50;79.28;;;30.25;;
18455;SDS011;9357;49.900;8.208;2022-12-18T07:22:22;73.13;;;28.38;;
18455;SDS011;9357;49.900;8.208;2022-12-18T07:23:56;56.53;;;24.60;;
18455;SDS011;9357;49.900;8.208;2022-12-18T07:25:30;53.85;;;21.80;;
18455;SDS011;9357;49.900;8.208;2022-12-18T07:27:05;46.72;;;20.80;;
18455;SDS011;9357;49.900;8.208;2022-12-18T07:28:39;48.78;;;21.13;;
18455;SDS011;9357;49.900;8.208;2022-12-18T07:30:13;48.60;;;21.30;;
18455;SDS011;9357;49.900;8.208;2022-12-18T07:31:46;47.45;;;20.98;;
18455;SDS011;9357;49.900;8.208;2022-12-18T07:33:19;51.33;;;22.02;;
18455;SDS011;9357;49.900;8.208;2022-12-18T07:34:51;44.35;;;21.48;;
18455;SDS011;9357;49.900;8.208;2022-12-18T07:36:24;51.67;;;22.13;;
18455;SDS011;9357;49.900;8.208;2022-12-18T07:37:57;48.65;;;21.63;;
18455;SDS011;9357;49.900;8.208;2022-12-18T07:39:34;45.63;;;22.33;;
18455;SDS011;9357;49.900;8.208;2022-12-18T07:41:08;48.20;;;22.50;;
18455;SDS011;9357;49.900;8.208;2022-12-18T07:42:43;46.65;;;20.73;;
18455;SDS011;9357;49.900;8.208;2022-12-18T07:44:16;39.03;;;19.33;;
18455;SDS011;9357;49.900;8.208;2022-12-18T07:45:48;42.58;;;20.75;;
18455;SDS011;9357;49.900;8.208;2022-12-18T07:47:21;42.95;;;19.55;;
18455;SDS011;9357;49.900;8.208;2022-12-18T07:48:54;44.83;;;19.73;;
18455;SDS011;9357;49.900;8.208;2022-12-18T07:50:27;43.53;;;20.10;;
18455;SDS011;9357;49.900;8.208;2022-12-18T07:52:00;42.58;;;19.60;;
18455;SDS011;9357;49.900;8.208;2022-12-18T07:53:33;42.90;;;19.30;;
18455;SDS011;9357;49.900;8.208;2022-12-18T07:55:07;42.13;;;19.58;;
18455;SDS011;9357;49.900;8.208;2022-12-18T07:56:42;42.58;;;19.00;;
18455;SDS011;9357;49.900;8.208;2022-12-18T07:58:15;41.78;;;18.45;;
18455;SDS011;9357;49.900;8.208;2022-12-18T07:59:47;41.22;;;18.90;;
18455;SDS011;9357;49.900;8.208;2022-12-18T08:01:20;51.20;;;21.98;;
18455;SDS011;9357;49.900;8.208;2022-12-18T08:02:53;49.28;;;20.13;;
18455;SDS011;9357;49.900;8.208;2022-12-18T08:04:26;45.88;;;18.88;;
18455;SDS011;9357;49.900;8.208;2022-12-18T08:06:00;42.88;;;19.50;;
18455;SDS011;9357;49.900;8.208;2022-12-18T08:07:33;79.85;;;32.67;;
18455;SDS011;9357;49.900;8.208;2022-12-18T08:09:05;66.43;;;28.77;;
18455;SDS011;9357;49.900;8.208;2022-12-18T08:10:39;57.03;;;23.92;;
18455;SDS011;9357;49.900;8.208;2022-12-18T08:12:13;44.80;;;20.80;;
18455;SDS011;9357;49.900;8.208;2022-12-18T08:13:46;50.88;;;22.38;;
18455;SDS011;9357;49.900;8.208;2022-12-18T08:15:19;47.33;;;21.90;;
18455;SDS011;9357;49.900;8.208;2022-12-18T08:16:52;53.28;;;22.48;;
18455;SDS011;9357;49.900;8.208;2022-12-18T08:18:25;45.88;;;21.77;;
18455;SDS011;9357;49.900;8.208;2022-12-18T08:19:58;50.35;;;22.67;;
18455;SDS011;9357;49.900;8.208;2022-12-18T08:21:31;46.38;;;20.80;;
18455;SDS011;9357;49.900;8.208;2022-12-18T08:23:04;47.35;;;19.35;;
18455;SDS011;9357;49.900;8.208;2022-12-18T08:24:37;44.85;;;21.17;;
18455;SDS011;9357;49.900;8.208;2022-12-18T08:26:10;48.25;;;21.00;;
18455;SDS011;9357;49.900;8.208;2022-12-18T08:27:44;45.65;;;21.70;;
18455;SDS011;9357;49.900;8.208;2022-12-18T08:29:17;52.92;;;22.77;;
18455;SDS011;9357;49.900;8.208;2022-12-18T08:30:52;47.85;;;21.02;;
18455;SDS011;9357;49.900;8.208;2022-12-18T08:32:25;53.72;;;23.83;;
18455;SDS011;9357;49.900;8.208;2022-12-18T08:33:59;48.63;;;22.15;;
18455;SDS011;9357;49.900;8.208;2022-12-18T08:35:34;53.15;;;23.52;;
18455;SDS011;9357;49.900;8.208;2022-12-18T08:37:15;48.92;;;21.20;;
18455;SDS011;9357;49.900;8.208;2022-12-18T08:38:48;45.67;;;21.33;;
18455;SDS011;9357;49.900;8.208;2022-12-18T08:40:21;53.20;;;22.42;;
18455;SDS011;9357;49.900;8.208;2022-12-18T08:41:54;51.67;;;22.88;;
18455;SDS011;9357;49.900;8.208;2022-12-18T08:43:45;54.13;;;22.65;;
18455;SDS011;9357;49.900;8.208;2022-12-18T08:45:36;45.60;;;23.60;;
18455;SDS011;9357;49.900;8.208;2022-12-18T08:47:09;54.47;;;25.15;;
18455;SDS011;9357;49.900;8.208;2022-12-18T08:48:42;58.03;;;26.48;;
18455;SDS011;9357;49.900;8.208;2022-12-18T08:50:14;68.72;;;29.27;;
18455;SDS011;9357;49.900;8.208;2022-12-18T08:51:48;62.10;;;27.55;;
18455;SDS011;9357;49.900;8.208;2022-12-18T08:53:25;50.05;;;24.45;;
18455;SDS011;9357;49.900;8.208;2022-12-18T08:55:06;51.47;;;23.38;;
18455;SDS011;9357;49.900;8.208;2022-12-18T08:56:40;50.78;;;24.08;;
18455;SDS011;9357;49.900;8.208;2022-12-18T08:58:12;49.92;;;23.95;;
18455;SDS011;9357;49.900;8.208;2022-12-18T08:59:47;57.78;;;24.23;;
18455;SDS011;9357;49.900;8.208;2022-12-18T09:01:19;50.80;;;24.20;;
18455;SDS011;9357;49.900;8.208;2022-12-18T09:02:53;52.38;;;24.05;;
18455;SDS011;9357;49.900;8.208;2022-12-18T09:04:26;55.58;;;25.00;;
18455;SDS011;9357;49.900;8.208;2022-12-18T09:05:58;52.80;;;23.58;;
18455;SDS011;9357;49.900;8.208;2022-12-18T09:07:31;50.20;;;24.95;;
18455;SDS011;9357;49.900;8.208;2022-12-18T09:09:04;57.63;;;25.00;;
18455;SDS011;9357;49.900;8.208;2022-12-18T09:10:40;53.25;;;24.65;;
18455;SDS011;9357;49.900;8.208;2022-12-18T09:12:14;49.08;;;24.80;;
18455;SDS011;9357;49.900;8.208;2022-12-18T09:13:47;55.88;;;25.63;;
18455;SDS011;9357;49.900;8.208;2022-12-18T09:15:21;61.75;;;27.70;;
18455;SDS011;9357;49.900;8.208;2022-12-18T09:16:54;57.95;;;26.92;;
18455;SDS011;9357;49.900;8.208;2022-12-18T09:18:27;63.33;;;27.80;;
18455;SDS011;9357;49.900;8.208;2022-12-18T09:19:59;63.50;;;27.35;;
18455;SDS011;9357;49.900;8.208;2022-12-18T09:21:33;56.05;;;26.70;;
18455;SDS011;9357;49.900;8.208;2022-12-18T09:23:08;55.72;;;26.23;;